MSC Chiara — H3RT — position and weather

sailwx.info

Track history (hours):
 
Tides and Currents Weather Stations Pressure Air Temp Water Temp Dewpoint Dewpoint Depression Visibility Wind Speed Wind Dir Waves Ship Positions

MSC Chiara

Last reported at 2015-Jun-30 04:03 UTC. Time now 2015-Jul-02 16:30 UTC.
Position S 29°16' E 031°52'.

Length 197 m; draft 9.7 m.

Type: Ship (hazmat cat A). MMSI: 352398000.

Date/timePositionNaut miles runAvg speedWind from/ knotsBaromVisibWave heightAir tempDewpointWater temp
2015-Jun-30 04:03S 29°16' E 031°52'713.8
2015-Jun-30 03:33S 29°21' E 031°47'1414.2
2015-Jun-30 02:33S 29°31' E 031°36'1414.3
2015-Jun-30 01:34S 29°42' E 031°24'1313.3
2015-Jun-30 00:33S 29°49' E 031°12'9 9.5
2015-Jun-29 23:34S 29°53' E 031°02'0 0.2
2015-Jun-29 22:33S 29°53' E 031°01'0 0.0
2015-Jun-29 21:32S 29°53' E 031°01'0 0.0
2015-Jun-29 20:32S 29°53' E 031°01'0 0.0
2015-Jun-29 19:31S 29°53' E 031°01'0 0.0
2015-Jun-29 18:31S 29°53' E 031°01'0 0.0
2015-Jun-29 17:31S 29°53' E 031°01'0 0.0
2015-Jun-29 16:33S 29°53' E 031°01'0 0.0
2015-Jun-29 15:33S 29°53' E 031°01'0 0.0
2015-Jun-29 14:32S 29°53' E 031°01'0 0.0
2015-Jun-29 13:32S 29°53' E 031°01'0 0.0
2015-Jun-29 12:28S 29°53' E 031°01'0 0.0
2015-Jun-29 11:31S 29°53' E 031°01'0 0.0
2015-Jun-29 10:33S 29°53' E 031°01'0 0.0
2015-Jun-29 09:33S 29°53' E 031°01'0 0.0
2015-Jun-29 08:33S 29°53' E 031°01'0 0.0
2015-Jun-29 07:32S 29°53' E 031°01'0 0.0
2015-Jun-29 06:32S 29°53' E 031°01'0 0.0
2015-Jun-29 05:31S 29°53' E 031°01'0 0.0
2015-Jun-29 04:31S 29°53' E 031°01'0 0.0
2015-Jun-29 03:34S 29°53' E 031°01'0 0.0
2015-Jun-29 02:30S 29°53' E 031°01'0 0.0
2015-Jun-29 01:33S 29°53' E 031°01'0 0.0
2015-Jun-29 00:32S 29°53' E 031°01'0 0.0
2015-Jun-28 23:32S 29°53' E 031°01'0 0.0
2015-Jun-28 22:31S 29°53' E 031°01'0 0.0
2015-Jun-28 21:31S 29°53' E 031°01'0 0.0
2015-Jun-28 20:30S 29°53' E 031°01'0 0.4
2015-Jun-28 19:33S 29°53' E 031°02'6 5.6
2015-Jun-28 18:33S 29°48' E 031°06'3 3.1
2015-Jun-28 17:33S 29°46' E 031°08'7 7.0
2015-Jun-28 16:32S 29°39' E 031°11'0 0.1
2015-Jun-28 15:32S 29°39' E 031°11'0 0.0
2015-Jun-28 14:31S 29°39' E 031°11'0 0.0
2015-Jun-28 13:31S 29°39' E 031°11'0 0.0
2015-Jun-28 12:31S 29°39' E 031°11'0 0.0
2015-Jun-28 11:33S 29°39' E 031°11'0 0.0
2015-Jun-28 10:33S 29°39' E 031°11'0 0.0
2015-Jun-28 09:32S 29°39' E 031°11'0 0.1
2015-Jun-28 08:32S 29°39' E 031°11'0 0.1
2015-Jun-28 07:31S 29°40' E 031°11'0 0.0
2015-Jun-28 06:31S 29°40' E 031°11'0 0.0
2015-Jun-28 05:33S 29°40' E 031°11'0 0.0
2015-Jun-28 04:33S 29°40' E 031°11'0 0.0
2015-Jun-28 03:33S 29°40' E 031°11'0 0.1
2015-Jun-28 02:32S 29°40' E 031°11'0 0.1
2015-Jun-28 01:32S 29°40' E 031°11'0 0.0
2015-Jun-28 00:31S 29°40' E 031°11'0 0.1
2015-Jun-27 23:31S 29°40' E 031°11'0 0.0
2015-Jun-27 22:33S 29°40' E 031°11'0 0.0
2015-Jun-27 21:33S 29°40' E 031°11'0 0.0
2015-Jun-27 20:30S 29°40' E 031°11'0 0.0
2015-Jun-27 19:32S 29°40' E 031°11'0 0.0
2015-Jun-27 18:32S 29°40' E 031°11'0 0.0
2015-Jun-27 17:31S 29°40' E 031°11'0 0.0
2015-Jun-27 16:31S 29°40' E 031°11'0 0.0
2015-Jun-27 15:33S 29°40' E 031°11'0 0.0
2015-Jun-27 14:33S 29°40' E 031°11'0 0.0
2015-Jun-27 13:33S 29°40' E 031°11'0 0.0
2015-Jun-27 12:32S 29°40' E 031°11'0 0.1
2015-Jun-27 11:32S 29°40' E 031°11'0 0.0
2015-Jun-27 10:31S 29°40' E 031°11'0 0.0
2015-Jun-27 09:31S 29°40' E 031°11'0 0.1
2015-Jun-27 08:30S 29°39' E 031°11'0 0.0
2015-Jun-27 07:33S 29°39' E 031°11'0 0.0
2015-Jun-27 06:33S 29°39' E 031°11'0 0.0
2015-Jun-27 05:32S 29°39' E 031°11'0 0.0
2015-Jun-27 04:32S 29°39' E 031°12'0 0.0
2015-Jun-27 03:31S 29°39' E 031°12'0 0.0
2015-Jun-27 02:28S 29°39' E 031°11'0 0.0
2015-Jun-27 01:33S 29°39' E 031°11'0 0.0
2015-Jun-27 00:33S 29°39' E 031°11'0 0.0
2015-Jun-26 23:33S 29°39' E 031°11'0 0.0
2015-Jun-26 22:32S 29°39' E 031°11'0 0.0
2015-Jun-26 21:29S 29°39' E 031°11'0 0.0
2015-Jun-26 20:31S 29°39' E 031°11'0 0.0
2015-Jun-26 19:31S 29°39' E 031°11'0 0.0
2015-Jun-26 18:33S 29°39' E 031°11'0 0.1
2015-Jun-26 17:30S 29°39' E 031°11'0 0.0
2015-Jun-26 16:32S 29°39' E 031°11'0 0.1
2015-Jun-26 15:32S 29°39' E 031°11'0 0.0
2015-Jun-26 14:32S 29°39' E 031°11'0 0.0
2015-Jun-26 13:31S 29°39' E 031°11'0 0.0
2015-Jun-26 12:31S 29°39' E 031°11'0 0.0
2015-Jun-26 11:33S 29°39' E 031°11'0 0.0
2015-Jun-26 10:33S 29°39' E 031°12'0 0.0
2015-Jun-26 09:32S 29°39' E 031°12'0 0.0
2015-Jun-26 08:32S 29°39' E 031°12'0 0.0
2015-Jun-26 07:32S 29°39' E 031°12'0 0.0
2015-Jun-26 06:31S 29°39' E 031°12'0 0.0
2015-Jun-26 05:31S 29°39' E 031°12'0 0.0
2015-Jun-26 04:33S 29°39' E 031°12'0 0.0
2015-Jun-26 03:33S 29°39' E 031°12'0 0.0
2015-Jun-26 02:32S 29°39' E 031°12'0 0.0
2015-Jun-26 01:32S 29°39' E 031°12'0 0.0
2015-Jun-26 00:32S 29°39' E 031°12'0 0.0
2015-Jun-25 23:31S 29°39' E 031°12'0 0.0
2015-Jun-25 22:31S 29°39' E 031°12'0 0.0
2015-Jun-25 21:33S 29°39' E 031°12'0 0.0
2015-Jun-25 20:33S 29°39' E 031°12'0 0.0
2015-Jun-25 19:32S 29°39' E 031°12'0 0.0
2015-Jun-25 18:32S 29°39' E 031°11'0 0.1
2015-Jun-25 17:32S 29°39' E 031°12'0 0.0
2015-Jun-25 16:28S 29°39' E 031°12'0 0.0
2015-Jun-25 15:31S 29°39' E 031°12'0 0.0
2015-Jun-25 14:33S 29°39' E 031°12'0 0.0
2015-Jun-25 13:33S 29°39' E 031°12'0 0.0
2015-Jun-25 12:29S 29°39' E 031°12'0 0.0
2015-Jun-25 11:29S 29°39' E 031°12'0 0.0
2015-Jun-25 10:32S 29°39' E 031°12'0 0.0
2015-Jun-25 09:28S 29°39' E 031°12'0 0.0
2015-Jun-25 08:28S 29°39' E 031°12'0 0.0
2015-Jun-25 07:33S 29°39' E 031°12'0 0.0
2015-Jun-25 06:33S 29°39' E 031°12'0 0.0
2015-Jun-25 05:32S 29°39' E 031°12'0 0.0
2015-Jun-25 04:32S 29°39' E 031°12'0 0.1
2015-Jun-25 03:32S 29°39' E 031°12'0 0.1
2015-Jun-25 02:31S 29°39' E 031°12'0 0.0
2015-Jun-25 01:31S 29°39' E 031°12'0 0.1
2015-Jun-25 00:33S 29°39' E 031°12'0 0.1
2015-Jun-24 23:33S 29°39' E 031°12'0 0.3
2015-Jun-24 22:32S 29°40' E 031°12'0 0.0
2015-Jun-24 21:32S 29°40' E 031°12'0 0.0
2015-Jun-24 20:32S 29°40' E 031°11'0 0.1
2015-Jun-24 19:31S 29°40' E 031°11'0 0.0
2015-Jun-24 18:31S 29°40' E 031°11'0 0.0
2015-Jun-24 17:33S 29°40' E 031°11'0 0.0
2015-Jun-24 16:33S 29°40' E 031°11'0 0.0
2015-Jun-24 15:32S 29°40' E 031°11'0 0.0
2015-Jun-24 14:32S 29°40' E 031°11'0 0.0
2015-Jun-24 13:31S 29°40' E 031°11'0 0.0
2015-Jun-24 12:25S 29°40' E 031°11'0 0.0
2015-Jun-24 11:31S 29°40' E 031°11'0 0.0
2015-Jun-24 10:33S 29°39' E 031°11'0 0.0
2015-Jun-24 09:30S 29°40' E 031°11'0 0.0
2015-Jun-24 08:29S 29°40' E 031°11'0 0.0
2015-Jun-24 07:32S 29°39' E 031°11'0 0.0
2015-Jun-24 06:31S 29°40' E 031°11'0 0.0
2015-Jun-24 05:31S 29°40' E 031°11'0 0.0
2015-Jun-24 04:31S 29°40' E 031°11'0 0.0
2015-Jun-24 03:33S 29°40' E 031°11'0 0.0
2015-Jun-24 02:33S 29°40' E 031°11'0 0.0
2015-Jun-24 01:32S 29°40' E 031°11'0 0.0
2015-Jun-24 00:33S 29°40' E 031°11'4 3.9
2015-Jun-23 23:33S 29°43' E 031°10'1110.9
2015-Jun-23 22:33S 29°52' E 031°03'2 1.6
2015-Jun-23 21:31S 29°53' E 031°01'0 0.0
2015-Jun-23 20:31S 29°53' E 031°01'0 0.0
2015-Jun-23 19:33S 29°53' E 031°01'0 0.0
2015-Jun-23 19:03S 29°53' E 031°01'0 0.0
2015-Jun-22 19:32S 29°53' E 031°01'0 0.0
2015-Jun-22 18:31S 29°53' E 031°01'0 0.0
2015-Jun-22 17:31S 29°53' E 031°01'0 0.0
2015-Jun-22 16:31S 29°53' E 031°01'0 0.0
2015-Jun-22 15:33S 29°53' E 031°01'0 0.0
2015-Jun-22 14:33S 29°53' E 031°01'0 0.0
2015-Jun-22 13:32S 29°53' E 031°01'0 0.0
2015-Jun-22 12:29S 29°53' E 031°01'0 0.0
2015-Jun-22 11:31S 29°53' E 031°01'0 0.0
2015-Jun-22 10:30S 29°53' E 031°01'0 0.0
2015-Jun-22 09:29S 29°53' E 031°01'0 0.0
2015-Jun-22 08:29S 29°53' E 031°01'0 0.0
2015-Jun-22 07:28S 29°53' E 031°01'1 0.8
2015-Jun-22 06:33S 29°52' E 031°02'5 4.5
2015-Jun-22 05:33S 29°50' E 031°06'1 1.3
2015-Jun-22 04:33S 29°49' E 031°07'4 4.4
2015-Jun-22 03:33S 29°45' E 031°09'6 5.3
2015-Jun-22 02:31S 29°40' E 031°11'0 0.0
2015-Jun-22 01:33S 29°40' E 031°11'0 0.0
2015-Jun-22 00:33S 29°40' E 031°11'0 0.1
2015-Jun-21 23:32S 29°40' E 031°11'0 0.1
2015-Jun-21 22:32S 29°40' E 031°11'0 0.0
2015-Jun-21 21:31S 29°40' E 031°11'0 0.0
2015-Jun-21 20:31S 29°40' E 031°11'0 0.0
2015-Jun-21 19:34S 29°40' E 031°11'0 0.1
2015-Jun-21 18:33S 29°40' E 031°11'0 0.0
2015-Jun-21 17:33S 29°40' E 031°11'0 0.0
2015-Jun-21 16:32S 29°40' E 031°11'0 0.0
2015-Jun-21 15:32S 29°40' E 031°11'0 0.0
2015-Jun-21 14:31S 29°40' E 031°11'0 0.0
2015-Jun-21 13:28S 29°40' E 031°11'0 0.0
2015-Jun-21 12:34S 29°40' E 031°11'0 0.0
2015-Jun-21 11:33S 29°40' E 031°11'0 0.0
2015-Jun-21 10:33S 29°40' E 031°11'0 0.0
2015-Jun-21 09:32S 29°40' E 031°11'0 0.1
2015-Jun-21 07:31S 29°40' E 031°11'0 0.0
2015-Jun-21 06:31S 29°40' E 031°11'0 0.1
2015-Jun-21 05:33S 29°40' E 031°11'0 0.0
2015-Jun-21 04:33S 29°40' E 031°11'0 0.0
2015-Jun-21 03:33S 29°40' E 031°11'0 0.1
2015-Jun-21 02:32S 29°40' E 031°11'0 0.0
2015-Jun-21 01:32S 29°40' E 031°11'0 0.0
2015-Jun-21 00:31S 29°40' E 031°11'0 0.0
2015-Jun-20 23:31S 29°40' E 031°11'0 0.0
2015-Jun-20 22:33S 29°40' E 031°11'0 0.0
2015-Jun-20 21:33S 29°40' E 031°11'0 0.0
2015-Jun-20 20:33S 29°40' E 031°11'0 0.0
2015-Jun-20 19:32S 29°40' E 031°11'0 0.3
2015-Jun-20 18:33S 29°40' E 031°11'9 9.3
2015-Jun-20 17:34S 29°35' E 031°20'1514.6
2015-Jun-20 16:34S 29°26' E 031°34'1514.4
2015-Jun-20 15:33S 29°17' E 031°47'3415.3
2015-Jun-20 13:19S 28°54' E 032°16'1216.3
2015-Jun-20 12:33S 28°45' E 032°25'3615.6
2015-Jun-20 10:15S 28°12' E 032°41'  
Track history (hours):
 
Tides and Currents Weather Stations Pressure Air Temp Water Temp Dewpoint Dewpoint Depression Visibility Wind Speed Wind Dir Waves Ship Positions

MSC Chiara

Last reported at 2015-Jun-30 04:03 UTC. Time now 2015-Jul-02 16:30 UTC.
Position S 29°16' E 031°52'.

Length 197 m; draft 9.7 m.

Type: Ship (hazmat cat A). MMSI: 352398000.

Date/timePositionNaut miles runAvg speedWind from/ knotsBaromVisibWave heightAir tempDewpointWater temp
2015-Jun-30 04:03S 29°16' E 031°52'713.8
2015-Jun-30 03:33S 29°21' E 031°47'1414.2
2015-Jun-30 02:33S 29°31' E 031°36'1414.3
2015-Jun-30 01:34S 29°42' E 031°24'1313.3
2015-Jun-30 00:33S 29°49' E 031°12'9 9.5
2015-Jun-29 23:34S 29°53' E 031°02'0 0.2
2015-Jun-29 22:33S 29°53' E 031°01'0 0.0
2015-Jun-29 21:32S 29°53' E 031°01'0 0.0
2015-Jun-29 20:32S 29°53' E 031°01'0 0.0
2015-Jun-29 19:31S 29°53' E 031°01'0 0.0
2015-Jun-29 18:31S 29°53' E 031°01'0 0.0
2015-Jun-29 17:31S 29°53' E 031°01'0 0.0
2015-Jun-29 16:33S 29°53' E 031°01'0 0.0
2015-Jun-29 15:33S 29°53' E 031°01'0 0.0
2015-Jun-29 14:32S 29°53' E 031°01'0 0.0
2015-Jun-29 13:32S 29°53' E 031°01'0 0.0
2015-Jun-29 12:28S 29°53' E 031°01'0 0.0
2015-Jun-29 11:31S 29°53' E 031°01'0 0.0
2015-Jun-29 10:33S 29°53' E 031°01'0 0.0
2015-Jun-29 09:33S 29°53' E 031°01'0 0.0
2015-Jun-29 08:33S 29°53' E 031°01'0 0.0
2015-Jun-29 07:32S 29°53' E 031°01'0 0.0
2015-Jun-29 06:32S 29°53' E 031°01'0 0.0
2015-Jun-29 05:31S 29°53' E 031°01'0 0.0
2015-Jun-29 04:31S 29°53' E 031°01'0 0.0
2015-Jun-29 03:34S 29°53' E 031°01'0 0.0
2015-Jun-29 02:30S 29°53' E 031°01'0 0.0
2015-Jun-29 01:33S 29°53' E 031°01'0 0.0
2015-Jun-29 00:32S 29°53' E 031°01'0 0.0
2015-Jun-28 23:32S 29°53' E 031°01'0 0.0
2015-Jun-28 22:31S 29°53' E 031°01'0 0.0
2015-Jun-28 21:31S 29°53' E 031°01'0 0.0
2015-Jun-28 20:30S 29°53' E 031°01'0 0.4
2015-Jun-28 19:33S 29°53' E 031°02'6 5.6
2015-Jun-28 18:33S 29°48' E 031°06'3 3.1
2015-Jun-28 17:33S 29°46' E 031°08'7 7.0
2015-Jun-28 16:32S 29°39' E 031°11'0 0.1
2015-Jun-28 15:32S 29°39' E 031°11'0 0.0
2015-Jun-28 14:31S 29°39' E 031°11'0 0.0
2015-Jun-28 13:31S 29°39' E 031°11'0 0.0
2015-Jun-28 12:31S 29°39' E 031°11'0 0.0
2015-Jun-28 11:33S 29°39' E 031°11'0 0.0
2015-Jun-28 10:33S 29°39' E 031°11'0 0.0
2015-Jun-28 09:32S 29°39' E 031°11'0 0.1
2015-Jun-28 08:32S 29°39' E 031°11'0 0.1
2015-Jun-28 07:31S 29°40' E 031°11'0 0.0
2015-Jun-28 06:31S 29°40' E 031°11'0 0.0
2015-Jun-28 05:33S 29°40' E 031°11'0 0.0
2015-Jun-28 04:33S 29°40' E 031°11'0 0.0
2015-Jun-28 03:33S 29°40' E 031°11'0 0.1
2015-Jun-28 02:32S 29°40' E 031°11'0 0.1
2015-Jun-28 01:32S 29°40' E 031°11'0 0.0
2015-Jun-28 00:31S 29°40' E 031°11'0 0.1
2015-Jun-27 23:31S 29°40' E 031°11'0 0.0
2015-Jun-27 22:33S 29°40' E 031°11'0 0.0
2015-Jun-27 21:33S 29°40' E 031°11'0 0.0
2015-Jun-27 20:30S 29°40' E 031°11'0 0.0
2015-Jun-27 19:32S 29°40' E 031°11'0 0.0
2015-Jun-27 18:32S 29°40' E 031°11'0 0.0
2015-Jun-27 17:31S 29°40' E 031°11'0 0.0
2015-Jun-27 16:31S 29°40' E 031°11'0 0.0
2015-Jun-27 15:33S 29°40' E 031°11'0 0.0
2015-Jun-27 14:33S 29°40' E 031°11'0 0.0
2015-Jun-27 13:33S 29°40' E 031°11'0 0.0
2015-Jun-27 12:32S 29°40' E 031°11'0 0.1
2015-Jun-27 11:32S 29°40' E 031°11'0 0.0
2015-Jun-27 10:31S 29°40' E 031°11'0 0.0
2015-Jun-27 09:31S 29°40' E 031°11'0 0.1
2015-Jun-27 08:30S 29°39' E 031°11'0 0.0
2015-Jun-27 07:33S 29°39' E 031°11'0 0.0
2015-Jun-27 06:33S 29°39' E 031°11'0 0.0
2015-Jun-27 05:32S 29°39' E 031°11'0 0.0
2015-Jun-27 04:32S 29°39' E 031°12'0 0.0
2015-Jun-27 03:31S 29°39' E 031°12'0 0.0
2015-Jun-27 02:28S 29°39' E 031°11'0 0.0
2015-Jun-27 01:33S 29°39' E 031°11'0 0.0
2015-Jun-27 00:33S 29°39' E 031°11'0 0.0
2015-Jun-26 23:33S 29°39' E 031°11'0 0.0
2015-Jun-26 22:32S 29°39' E 031°11'0 0.0
2015-Jun-26 21:29S 29°39' E 031°11'0 0.0
2015-Jun-26 20:31S 29°39' E 031°11'0 0.0
2015-Jun-26 19:31S 29°39' E 031°11'0 0.0
2015-Jun-26 18:33S 29°39' E 031°11'0 0.1
2015-Jun-26 17:30S 29°39' E 031°11'0 0.0
2015-Jun-26 16:32S 29°39' E 031°11'0 0.1
2015-Jun-26 15:32S 29°39' E 031°11'0 0.0
2015-Jun-26 14:32S 29°39' E 031°11'0 0.0
2015-Jun-26 13:31S 29°39' E 031°11'0 0.0
2015-Jun-26 12:31S 29°39' E 031°11'0 0.0
2015-Jun-26 11:33S 29°39' E 031°11'0 0.0
2015-Jun-26 10:33S 29°39' E 031°12'0 0.0
2015-Jun-26 09:32S 29°39' E 031°12'0 0.0
2015-Jun-26 08:32S 29°39' E 031°12'0 0.0
2015-Jun-26 07:32S 29°39' E 031°12'0 0.0
2015-Jun-26 06:31S 29°39' E 031°12'0 0.0
2015-Jun-26 05:31S 29°39' E 031°12'0 0.0
2015-Jun-26 04:33S 29°39' E 031°12'0 0.0
2015-Jun-26 03:33S 29°39' E 031°12'0 0.0
2015-Jun-26 02:32S 29°39' E 031°12'0 0.0
2015-Jun-26 01:32S 29°39' E 031°12'0 0.0
2015-Jun-26 00:32S 29°39' E 031°12'0 0.0
2015-Jun-25 23:31S 29°39' E 031°12'0 0.0
2015-Jun-25 22:31S 29°39' E 031°12'0 0.0
2015-Jun-25 21:33S 29°39' E 031°12'0 0.0
2015-Jun-25 20:33S 29°39' E 031°12'0 0.0
2015-Jun-25 19:32S 29°39' E 031°12'0 0.0
2015-Jun-25 18:32S 29°39' E 031°11'0 0.1
2015-Jun-25 17:32S 29°39' E 031°12'0 0.0
2015-Jun-25 16:28S 29°39' E 031°12'0 0.0
2015-Jun-25 15:31S 29°39' E 031°12'0 0.0
2015-Jun-25 14:33S 29°39' E 031°12'0 0.0
2015-Jun-25 13:33S 29°39' E 031°12'0 0.0
2015-Jun-25 12:29S 29°39' E 031°12'0 0.0
2015-Jun-25 11:29S 29°39' E 031°12'0 0.0
2015-Jun-25 10:32S 29°39' E 031°12'0 0.0
2015-Jun-25 09:28S 29°39' E 031°12'0 0.0
2015-Jun-25 08:28S 29°39' E 031°12'0 0.0
2015-Jun-25 07:33S 29°39' E 031°12'0 0.0
2015-Jun-25 06:33S 29°39' E 031°12'0 0.0
2015-Jun-25 05:32S 29°39' E 031°12'0 0.0
2015-Jun-25 04:32S 29°39' E 031°12'0 0.1
2015-Jun-25 03:32S 29°39' E 031°12'0 0.1
2015-Jun-25 02:31S 29°39' E 031°12'0 0.0
2015-Jun-25 01:31S 29°39' E 031°12'0 0.1
2015-Jun-25 00:33S 29°39' E 031°12'0 0.1
2015-Jun-24 23:33S 29°39' E 031°12'0 0.3
2015-Jun-24 22:32S 29°40' E 031°12'0 0.0
2015-Jun-24 21:32S 29°40' E 031°12'0 0.0
2015-Jun-24 20:32S 29°40' E 031°11'0 0.1
2015-Jun-24 19:31S 29°40' E 031°11'0 0.0
2015-Jun-24 18:31S 29°40' E 031°11'0 0.0
2015-Jun-24 17:33S 29°40' E 031°11'0 0.0
2015-Jun-24 16:33S 29°40' E 031°11'0 0.0
2015-Jun-24 15:32S 29°40' E 031°11'0 0.0
2015-Jun-24 14:32S 29°40' E 031°11'0 0.0
2015-Jun-24 13:31S 29°40' E 031°11'0 0.0
2015-Jun-24 12:25S 29°40' E 031°11'0 0.0
2015-Jun-24 11:31S 29°40' E 031°11'0 0.0
2015-Jun-24 10:33S 29°39' E 031°11'0 0.0
2015-Jun-24 09:30S 29°40' E 031°11'0 0.0
2015-Jun-24 08:29S 29°40' E 031°11'0 0.0
2015-Jun-24 07:32S 29°39' E 031°11'0 0.0
2015-Jun-24 06:31S 29°40' E 031°11'0 0.0
2015-Jun-24 05:31S 29°40' E 031°11'0 0.0
2015-Jun-24 04:31S 29°40' E 031°11'0 0.0
2015-Jun-24 03:33S 29°40' E 031°11'0 0.0
2015-Jun-24 02:33S 29°40' E 031°11'0 0.0
2015-Jun-24 01:32S 29°40' E 031°11'0 0.0
2015-Jun-24 00:33S 29°40' E 031°11'4 3.9
2015-Jun-23 23:33S 29°43' E 031°10'1110.9
2015-Jun-23 22:33S 29°52' E 031°03'2 1.6
2015-Jun-23 21:31S 29°53' E 031°01'0 0.0
2015-Jun-23 20:31S 29°53' E 031°01'0 0.0
2015-Jun-23 19:33S 29°53' E 031°01'0 0.0
2015-Jun-23 19:03S 29°53' E 031°01'0 0.0
2015-Jun-22 19:32S 29°53' E 031°01'0 0.0
2015-Jun-22 18:31S 29°53' E 031°01'0 0.0
2015-Jun-22 17:31S 29°53' E 031°01'0 0.0
2015-Jun-22 16:31S 29°53' E 031°01'0 0.0
2015-Jun-22 15:33S 29°53' E 031°01'0 0.0
2015-Jun-22 14:33S 29°53' E 031°01'0 0.0
2015-Jun-22 13:32S 29°53' E 031°01'0 0.0
2015-Jun-22 12:29S 29°53' E 031°01'0 0.0
2015-Jun-22 11:31S 29°53' E 031°01'0 0.0
2015-Jun-22 10:30S 29°53' E 031°01'0 0.0
2015-Jun-22 09:29S 29°53' E 031°01'0 0.0
2015-Jun-22 08:29S 29°53' E 031°01'0 0.0
2015-Jun-22 07:28S 29°53' E 031°01'1 0.8
2015-Jun-22 06:33S 29°52' E 031°02'5 4.5
2015-Jun-22 05:33S 29°50' E 031°06'1 1.3
2015-Jun-22 04:33S 29°49' E 031°07'4 4.4
2015-Jun-22 03:33S 29°45' E 031°09'6 5.3
2015-Jun-22 02:31S 29°40' E 031°11'0 0.0
2015-Jun-22 01:33S 29°40' E 031°11'0 0.0
2015-Jun-22 00:33S 29°40' E 031°11'0 0.1
2015-Jun-21 23:32S 29°40' E 031°11'0 0.1
2015-Jun-21 22:32S 29°40' E 031°11'0 0.0
2015-Jun-21 21:31S 29°40' E 031°11'0 0.0
2015-Jun-21 20:31S 29°40' E 031°11'0 0.0
2015-Jun-21 19:34S 29°40' E 031°11'0 0.1
2015-Jun-21 18:33S 29°40' E 031°11'0 0.0
2015-Jun-21 17:33S 29°40' E 031°11'0 0.0
2015-Jun-21 16:32S 29°40' E 031°11'0 0.0
2015-Jun-21 15:32S 29°40' E 031°11'0 0.0
2015-Jun-21 14:31S 29°40' E 031°11'0 0.0
2015-Jun-21 13:28S 29°40' E 031°11'0 0.0
2015-Jun-21 12:34S 29°40' E 031°11'0 0.0
2015-Jun-21 11:33S 29°40' E 031°11'0 0.0
2015-Jun-21 10:33S 29°40' E 031°11'0 0.0
2015-Jun-21 09:32S 29°40' E 031°11'0 0.1
2015-Jun-21 07:31S 29°40' E 031°11'0 0.0
2015-Jun-21 06:31S 29°40' E 031°11'0 0.1
2015-Jun-21 05:33S 29°40' E 031°11'0 0.0
2015-Jun-21 04:33S 29°40' E 031°11'0 0.0
2015-Jun-21 03:33S 29°40' E 031°11'0 0.1
2015-Jun-21 02:32S 29°40' E 031°11'0 0.0
2015-Jun-21 01:32S 29°40' E 031°11'0 0.0
2015-Jun-21 00:31S 29°40' E 031°11'0 0.0
2015-Jun-20 23:31S 29°40' E 031°11'0 0.0
2015-Jun-20 22:33S 29°40' E 031°11'0 0.0
2015-Jun-20 21:33S 29°40' E 031°11'0 0.0
2015-Jun-20 20:33S 29°40' E 031°11'0 0.0
2015-Jun-20 19:32S 29°40' E 031°11'0 0.3
2015-Jun-20 18:33S 29°40' E 031°11'9 9.3
2015-Jun-20 17:34S 29°35' E 031°20'1514.6
2015-Jun-20 16:34S 29°26' E 031°34'1514.4
2015-Jun-20 15:33S 29°17' E 031°47'3415.3
2015-Jun-20 13:19S 28°54' E 032°16'1216.3
2015-Jun-20 12:33S 28°45' E 032°25'3615.6
2015-Jun-20 10:15S 28°12' E 032°41'  

Dump ship's entire track history